Time;durP1;ratioP1;P1;durP2;ratioP2;P2;SDS_P1;SDS_P2;PMS_P1;PMS_P2;Temp;Humidity;BMP_temperature;BMP_pressure;BME280_temperature;BME280_humidity;BME280_pressure;Samples;Min_cycle;Max_cycle;Signal;HPM_P1;HPM_P2
2024/04/10 00:01:04;;;;;;;3.75;3.45;;;13.50;99.90;;;;;;5351097;26;20300;-70
2024/04/10 00:03:31;;;;;;;3.70;3.17;;;13.50;99.90;;;;;;5352745;26;20265;-71
2024/04/10 00:06:02;;;;;;;3.30;3.00;;;13.50;99.90;;;;;;5349145;26;21124;-72
2024/04/10 00:08:30;;;;;;;3.67;3.38;;;13.60;99.90;;;;;;5353148;26;20308;-71
2024/04/10 00:11:02;;;;;;;3.80;3.15;;;13.60;99.90;;;;;;5347198;26;20377;-72
2024/04/10 00:13:28;;;;;;;4.38;3.40;;;13.60;99.90;;;;;;5352215;26;20318;-71
2024/04/10 00:16:01;;;;;;;3.00;2.80;;;13.60;99.90;;;;;;5353051;26;20752;-71
2024/04/10 00:18:27;;;;;;;3.20;2.67;;;13.60;99.90;;;;;;5349185;26;20257;-71
2024/04/10 00:20:56;;;;;;;4.70;4.20;;;13.60;99.90;;;;;;5351295;26;22296;-71
2024/04/10 00:23:22;;;;;;;3.80;3.42;;;13.50;99.90;;;;;;5353354;26;20256;-72
2024/04/10 00:25:58;;;;;;;5.07;3.90;;;13.40;99.90;;;;;;5353332;26;20253;-71
2024/04/10 00:28:28;;;;;;;7.78;4.00;;;13.20;99.90;;;;;;5345274;26;20253;-71
2024/04/10 00:30:57;;;;;;;6.47;3.75;;;13.20;99.90;;;;;;5349100;26;20299;-72
2024/04/10 00:33:23;;;;;;;34.85;5.78;;;13.10;99.90;;;;;;5348684;26;20253;-71
2024/04/10 00:35:58;;;;;;;12.55;4.47;;;13.10;99.90;;;;;;5348568;26;20292;-71
2024/04/10 00:38:26;;;;;;;27.83;5.25;;;13.00;99.90;;;;;;5347527;26;20714;-71
2024/04/10 00:40:56;;;;;;;5.28;3.95;;;13.10;99.90;;;;;;5350241;26;20737;-72
2024/04/10 00:43:22;;;;;;;4.80;4.35;;;13.10;99.90;;;;;;5353404;26;20401;-71
2024/04/10 00:45:57;;;;;;;27.05;6.20;;;13.10;99.90;;;;;;5347218;26;20274;-72
2024/04/10 00:48:24;;;;;;;25.35;5.65;;;13.10;99.90;;;;;;5349506;26;20350;-71
2024/04/10 00:50:53;;;;;;;5.68;4.30;;;13.00;99.90;;;;;;5345427;26;20262;-71
2024/04/10 00:53:20;;;;;;;4.18;3.78;;;13.00;99.90;;;;;;5348097;26;20305;-71
2024/04/10 00:55:50;;;;;;;45.83;6.45;;;12.90;99.90;;;;;;5355308;26;20292;-71
2024/04/10 00:58:16;;;;;;;40.42;5.40;;;13.00;99.90;;;;;;5352892;26;20650;-71
2024/04/10 01:00:45;;;;;;;237.13;10.93;;;12.90;99.90;;;;;;5350824;26;20250;-72
2024/04/10 01:03:13;;;;;;;4.97;3.97;;;12.90;99.90;;;;;;5352352;26;20881;-71
2024/04/10 01:05:42;;;;;;;4.25;3.75;;;12.80;99.90;;;;;;5351409;26;20317;-70
2024/04/10 01:08:08;;;;;;;3.97;3.65;;;12.70;99.90;;;;;;5345487;26;20262;-71
2024/04/10 01:10:36;;;;;;;3.70;3.40;;;12.80;99.90;;;;;;5349325;26;20296;-70
2024/04/10 01:13:03;;;;;;;147.07;10.13;;;12.80;99.90;;;;;;5353746;26;20869;-71
2024/04/10 01:15:31;;;;;;;153.10;9.90;;;12.80;99.90;;;;;;5344852;26;20259;-71
2024/04/10 01:17:57;;;;;;;3.67;3.38;;;12.80;99.90;;;;;;5354691;26;20755;-71
2024/04/10 01:20:28;;;;;;;4.13;3.30;;;12.70;99.90;;;;;;5350959;26;20253;-71
2024/04/10 01:23:00;;;;;;;4.20;3.60;;;12.60;99.90;;;;;;5351138;26;20297;-71
2024/04/10 01:25:29;;;;;;;3.05;2.75;;;12.60;99.90;;;;;;5349391;26;20288;-71
2024/04/10 01:27:55;;;;;;;4.15;3.08;;;12.50;99.90;;;;;;5350232;26;20327;-71
2024/04/10 01:30:23;;;;;;;2.80;2.58;;;12.40;99.90;;;;;;5346599;26;20266;-71
2024/04/10 01:32:50;;;;;;;2.20;2.10;;;12.30;99.90;;;;;;5353377;26;20948;-71
2024/04/10 01:35:19;;;;;;;2.60;2.40;;;12.30;99.90;;;;;;5348598;26;20255;-71
2024/04/10 01:37:45;;;;;;;3.63;2.35;;;12.20;99.90;;;;;;5347499;26;20304;-70
2024/04/10 01:40:16;;;;;;;3.70;2.00;;;12.00;99.90;;;;;;5350316;26;20628;-70
2024/04/10 01:42:44;;;;;;;2.20;1.88;;;11.90;99.90;;;;;;5355425;26;20307;-73
2024/04/10 01:45:12;;;;;;;1.98;1.58;;;11.70;99.90;;;;;;5355133;26;20257;-72
2024/04/10 01:47:38;;;;;;;2.05;1.52;;;11.60;99.90;;;;;;5356263;26;20287;-71
2024/04/10 01:50:07;;;;;;;1.60;1.50;;;11.50;99.90;;;;;;5353743;26;20253;-72
2024/04/10 01:52:34;;;;;;;2.10;1.98;;;11.40;99.90;;;;;;5352890;26;20253;-73
2024/04/10 01:55:02;;;;;;;1.50;1.30;;;11.40;99.90;;;;;;5357083;26;20254;-74
2024/04/10 01:57:31;;;;;;;1.65;1.48;;;11.30;99.90;;;;;;5355377;26;20258;-72
2024/04/10 01:59:59;;;;;;;1.27;1.27;;;11.20;99.90;;;;;;5357305;26;20424;-71
2024/04/10 02:02:25;;;;;;;1.13;1.13;;;11.10;99.90;;;;;;5347254;26;20259;-73
2024/04/10 02:04:54;;;;;;;1.20;1.20;;;11.10;99.90;;;;;;5353084;26;20245;-74
2024/04/10 02:07:20;;;;;;;1.67;1.40;;;11.00;99.90;;;;;;5354566;26;20261;-73
2024/04/10 02:09:48;;;;;;;1.23;1.10;;;10.90;99.90;;;;;;5355199;26;20316;-72
2024/04/10 02:12:14;;;;;;;1.35;1.20;;;10.90;99.90;;;;;;5354184;26;20261;-71
2024/04/10 02:14:46;;;;;;;1.73;1.10;;;10.80;99.90;;;;;;5354859;26;20253;-73
2024/04/10 02:17:11;;;;;;;1.40;1.27;;;10.80;99.90;;;;;;5355631;26;20254;-74
2024/04/10 02:19:40;;;;;;;1.20;1.20;;;10.70;99.90;;;;;;5360072;26;20242;-73
2024/04/10 02:22:06;;;;;;;1.70;1.30;;;10.60;99.90;;;;;;5353256;26;20745;-72
2024/04/10 02:24:34;;;;;;;1.00;1.00;;;10.50;99.90;;;;;;5355235;26;20288;-73
2024/04/10 02:27:00;;;;;;;1.05;1.05;;;10.40;99.90;;;;;;5355643;26;20250;-73
2024/04/10 02:29:30;;;;;;;1.10;1.10;;;10.40;99.90;;;;;;5350925;26;20281;-70
2024/04/10 02:31:59;;;;;;;0.93;0.93;;;10.30;99.90;;;;;;5351322;26;20667;-75
2024/04/10 02:34:28;;;;;;;1.10;1.10;;;10.30;99.90;;;;;;5356249;26;20253;-72
2024/04/10 02:36:54;;;;;;;1.15;1.15;;;10.30;99.90;;;;;;5356082;26;20280;-72
2024/04/10 02:39:23;;;;;;;0.90;0.90;;;10.30;99.90;;;;;;5352875;26;20260;-72
2024/04/10 02:41:49;;;;;;;1.85;1.35;;;10.30;99.90;;;;;;5351998;26;20291;-71
2024/04/10 02:44:17;;;;;;;1.30;1.20;;;10.30;99.90;;;;;;5356721;26;20938;-71
2024/04/10 02:46:43;;;;;;;1.08;1.00;;;10.30;99.90;;;;;;5349276;26;20261;-70
2024/04/10 02:49:14;;;;;;;3.80;1.27;;;10.30;99.90;;;;;;5352830;26;20316;-74
2024/04/10 02:51:41;;;;;;;1.20;1.20;;;10.30;99.90;;;;;;5357074;26;20686;-74
2024/04/10 02:54:09;;;;;;;1.50;1.40;;;10.30;99.90;;;;;;5345676;26;20253;-71
2024/04/10 02:56:35;;;;;;;1.20;1.10;;;10.30;99.90;;;;;;5355711;26;20260;-73
2024/04/10 02:59:04;;;;;;;1.05;1.05;;;10.20;99.90;;;;;;5354186;26;20626;-72
2024/04/10 03:01:29;;;;;;;1.10;1.10;;;10.20;99.90;;;;;;5353414;26;20292;-74
2024/04/10 03:03:58;;;;;;;1.45;1.38;;;10.20;99.90;;;;;;5347281;26;20258;-71
2024/04/10 03:06:27;;;;;;;2.00;1.20;;;10.20;99.90;;;;;;5350592;26;20253;-69
2024/04/10 03:08:55;;;;;;;1.13;1.13;;;10.20;99.90;;;;;;5349926;26;20316;-71
2024/04/10 03:11:21;;;;;;;1.00;1.00;;;10.20;99.90;;;;;;5353698;26;20257;-71
2024/04/10 03:13:50;;;;;;;1.08;1.08;;;10.20;99.90;;;;;;5357373;26;20327;-72
2024/04/10 03:16:16;;;;;;;1.10;1.10;;;10.10;99.90;;;;;;5354221;26;20400;-74
2024/04/10 03:18:45;;;;;;;1.20;1.20;;;10.20;99.90;;;;;;5347201;26;20254;-71
2024/04/10 03:21:11;;;;;;;1.15;1.15;;;10.20;99.90;;;;;;5346030;26;20249;-73
2024/04/10 03:23:42;;;;;;;1.20;1.20;;;10.20;99.90;;;;;;5356542;26;20288;-71
2024/04/10 03:26:09;;;;;;;1.27;1.17;;;10.30;99.90;;;;;;5353971;26;20953;-75
2024/04/10 03:28:40;;;;;;;1.25;1.25;;;10.40;99.90;;;;;;5354344;26;21711;-73
2024/04/10 03:31:07;;;;;;;0.98;0.98;;;10.50;99.90;;;;;;5349783;26;20347;-75
2024/04/10 03:33:36;;;;;;;1.02;1.02;;;10.60;99.90;;;;;;5350248;26;20291;-74
2024/04/10 03:36:04;;;;;;;1.17;1.17;;;10.60;99.90;;;;;;5354083;26;20691;-73
2024/04/10 03:38:32;;;;;;;1.70;1.13;;;10.60;99.90;;;;;;5346828;26;20300;-73
2024/04/10 03:41:01;;;;;;;1.00;1.00;;;10.60;99.90;;;;;;5356373;26;20261;-73
2024/04/10 03:43:29;;;;;;;1.13;1.13;;;10.40;99.90;;;;;;5353493;26;20365;-72
2024/04/10 03:46:00;;;;;;;1.10;1.10;;;10.30;99.90;;;;;;5355367;26;20258;-69
2024/04/10 03:48:28;;;;;;;1.88;1.17;;;10.20;99.90;;;;;;5353210;26;20514;-70
2024/04/10 03:51:01;;;;;;;2.25;1.20;;;10.20;99.90;;;;;;5352192;26;20250;-72
2024/04/10 03:53:28;;;;;;;1.33;1.33;;;10.10;99.90;;;;;;5350037;26;20291;-72
2024/04/10 03:55:57;;;;;;;1.00;1.00;;;10.10;99.90;;;;;;5357282;26;20299;-74
2024/04/10 03:58:26;;;;;;;1.00;1.00;;;10.10;99.90;;;;;;5351084;26;20257;-71
2024/04/10 04:00:54;;;;;;;1.20;1.20;;;10.10;99.90;;;;;;5349029;26;20298;-72
2024/04/10 04:03:20;;;;;;;1.20;1.20;;;10.10;99.90;;;;;;5354177;26;20280;-72
2024/04/10 04:05:49;;;;;;;1.20;1.20;;;10.20;99.90;;;;;;5353247;26;20254;-73
2024/04/10 04:08:15;;;;;;;1.40;1.40;;;10.30;99.90;;;;;;5356985;26;20292;-72
2024/04/10 04:10:45;;;;;;;1.38;1.30;;;10.30;99.90;;;;;;5349794;26;20686;-73
2024/04/10 04:13:12;;;;;;;1.23;1.23;;;10.30;99.90;;;;;;5351601;26;20293;-71
2024/04/10 04:15:44;;;;;;;1.10;1.10;;;10.20;99.90;;;;;;5349677;26;20300;-74
2024/04/10 04:18:09;;;;;;;3.13;1.55;;;10.10;99.90;;;;;;5349232;26;20299;-72
2024/04/10 04:20:38;;;;;;;1.13;1.13;;;10.00;99.90;;;;;;5351900;26;22943;-70
2024/04/10 04:23:04;;;;;;;1.10;1.10;;;10.00;99.90;;;;;;5354011;26;20249;-70
2024/04/10 04:25:33;;;;;;;1.23;1.23;;;10.00;99.90;;;;;;5347769;26;20254;-70
2024/04/10 04:27:59;;;;;;;1.50;1.40;;;9.90;99.90;;;;;;5353732;26;20301;-72
2024/04/10 04:30:28;;;;;;;1.20;1.20;;;9.90;99.90;;;;;;5352223;26;20307;-72
2024/04/10 04:32:56;;;;;;;1.33;1.33;;;9.90;99.90;;;;;;5349638;26;20254;-71
2024/04/10 04:35:25;;;;;;;1.30;1.30;;;9.80;99.90;;;;;;5350893;26;20288;-72
2024/04/10 04:37:56;;;;;;;1.30;1.30;;;9.80;99.90;;;;;;5355631;26;20292;-73
2024/04/10 04:40:24;;;;;;;1.25;1.25;;;9.80;99.90;;;;;;5355643;26;20257;-72
2024/04/10 04:42:50;;;;;;;1.30;1.30;;;9.80;99.90;;;;;;5347672;26;20257;-71
2024/04/10 04:45:18;;;;;;;2.10;2.00;;;9.80;99.90;;;;;;5350262;26;20299;-73
2024/04/10 04:47:44;;;;;;;1.42;1.42;;;9.80;99.90;;;;;;5351558;26;20249;-74
2024/04/10 04:50:16;;;;;;;1.50;1.50;;;9.80;99.90;;;;;;5352348;26;20812;-74
2024/04/10 04:52:42;;;;;;;1.60;1.60;;;9.80;99.90;;;;;;5348074;26;21155;-72
2024/04/10 04:55:11;;;;;;;1.20;1.20;;;9.90;99.90;;;;;;5347750;26;20253;-73
2024/04/10 04:57:37;;;;;;;1.15;1.15;;;9.90;99.90;;;;;;5350934;26;20283;-72
2024/04/10 05:00:11;;;;;;;1.20;1.10;;;9.90;99.90;;;;;;5349483;26;20881;-75
2024/04/10 05:02:38;;;;;;;1.23;1.23;;;10.00;99.90;;;;;;5348479;26;20880;-71
2024/04/10 05:05:05;;;;;;;1.40;1.40;;;10.00;99.90;;;;;;5350953;26;20265;-71
2024/04/10 05:07:36;;;;;;;1.33;1.30;;;10.00;99.90;;;;;;5352140;26;20343;-72
2024/04/10 05:10:05;;;;;;;1.40;1.30;;;10.00;99.90;;;;;;5348505;26;20289;-74
2024/04/10 05:12:32;;;;;;;1.20;1.20;;;10.00;99.90;;;;;;5348191;26;20702;-72
2024/04/10 05:15:00;;;;;;;1.17;1.17;;;10.00;99.90;;;;;;5352181;26;20257;-71
2024/04/10 05:17:26;;;;;;;1.30;1.30;;;9.90;99.90;;;;;;5352003;26;20288;-72
2024/04/10 05:19:55;;;;;;;1.10;1.10;;;9.80;99.90;;;;;;5355231;26;20248;-75
2024/04/10 05:22:21;;;;;;;1.35;1.35;;;9.80;99.90;;;;;;5356692;26;20483;-72
2024/04/10 05:24:52;;;;;;;1.50;1.50;;;9.80;99.90;;;;;;5355045;26;20755;-73
2024/04/10 05:27:22;;;;;;;1.40;1.40;;;9.70;99.90;;;;;;5352848;26;21637;-72
2024/04/10 05:29:57;;;;;;;1.30;1.30;;;9.70;99.90;;;;;;5355407;26;20315;-70
2024/04/10 05:32:23;;;;;;;1.38;1.38;;;9.60;99.90;;;;;;5354060;26;20295;-71
2024/04/10 05:34:54;;;;;;;1.45;1.40;;;9.50;99.90;;;;;;5357438;26;20783;-71
2024/04/10 05:37:21;;;;;;;1.38;1.38;;;9.40;99.90;;;;;;5354580;26;20959;-70
2024/04/10 05:40:05;;;;;;;1.20;1.20;;;9.30;99.90;;;;;;5358372;26;20304;-71
2024/04/10 05:42:32;;;;;;;1.48;1.48;;;9.30;99.90;;;;;;5351501;26;20258;-72
2024/04/10 05:45:01;;;;;;;1.42;1.40;;;9.30;99.90;;;;;;5353500;26;20253;-71
2024/04/10 05:47:27;;;;;;;1.38;1.38;;;9.30;99.90;;;;;;5350569;26;20268;-71
2024/04/10 05:49:57;;;;;;;1.33;1.33;;;9.30;99.90;;;;;;5355405;26;20287;-72
2024/04/10 05:52:23;;;;;;;1.30;1.30;;;9.20;99.90;;;;;;5354673;26;20371;-71
2024/04/10 05:54:55;;;;;;;1.30;1.30;;;9.20;99.90;;;;;;5353577;26;21194;-69
2024/04/10 05:57:21;;;;;;;3.25;1.65;;;9.10;99.90;;;;;;5359207;26;20346;-72
2024/04/10 05:59:53;;;;;;;1.52;1.52;;;9.00;99.90;;;;;;5360519;26;20456;-71
2024/04/10 06:02:20;;;;;;;2.03;1.77;;;8.90;99.90;;;;;;5354972;26;20321;-72
2024/04/10 06:04:48;;;;;;;1.52;1.42;;;8.90;99.90;;;;;;5361011;26;21057;-70
2024/04/10 06:07:14;;;;;;;1.77;1.67;;;8.80;99.90;;;;;;5350707;26;20246;-72
2024/04/10 06:09:43;;;;;;;2.10;1.90;;;8.80;99.90;;;;;;5352714;26;20300;-71
2024/04/10 06:12:11;;;;;;;1.83;1.73;;;8.80;99.90;;;;;;5353938;26;20258;-72
2024/04/10 06:14:40;;;;;;;1.73;1.63;;;8.80;99.90;;;;;;5357671;26;21061;-72
2024/04/10 06:17:06;;;;;;;1.60;1.58;;;8.80;99.90;;;;;;5352791;26;20652;-72
2024/04/10 06:19:35;;;;;;;1.75;1.65;;;8.90;99.90;;;;;;5355516;26;20261;-73
2024/04/10 06:22:00;;;;;;;1.50;1.50;;;8.90;99.90;;;;;;5354423;26;20316;-73
2024/04/10 06:24:29;;;;;;;1.45;1.45;;;9.00;99.90;;;;;;5354722;26;20320;-74
2024/04/10 06:26:55;;;;;;;1.70;1.70;;;9.00;99.90;;;;;;5353505;26;20367;-73
2024/04/10 06:29:26;;;;;;;1.75;1.60;;;9.00;99.90;;;;;;5354549;26;20305;-75
2024/04/10 06:31:52;;;;;;;1.50;1.50;;;9.00;99.90;;;;;;5348983;26;20784;-74
2024/04/10 06:34:21;;;;;;;1.35;1.35;;;9.10;99.90;;;;;;5358655;26;20297;-71
2024/04/10 06:36:47;;;;;;;1.45;1.45;;;9.00;99.90;;;;;;5357176;26;20261;-71
2024/04/10 06:39:15;;;;;;;1.60;1.50;;;9.00;99.90;;;;;;5358849;26;20265;-71
2024/04/10 06:41:44;;;;;;;1.50;1.50;;;9.00;99.90;;;;;;5353853;26;20751;-73
2024/04/10 06:44:10;;;;;;;1.40;1.40;;;9.10;99.90;;;;;;5358084;26;20241;-73
2024/04/10 06:46:41;;;;;;;1.83;1.73;;;9.20;99.90;;;;;;5359464;26;20311;-72
2024/04/10 06:49:09;;;;;;;1.63;1.60;;;9.30;99.90;;;;;;5354265;26;20262;-71
2024/04/10 06:51:38;;;;;;;1.52;1.52;;;9.20;99.90;;;;;;5350220;26;20312;-73
2024/04/10 06:54:04;;;;;;;1.88;1.42;;;9.20;99.90;;;;;;5358398;26;21120;-72
2024/04/10 06:56:33;;;;;;;1.60;1.48;;;9.10;99.90;;;;;;5351865;26;20250;-71
2024/04/10 06:58:59;;;;;;;1.40;1.30;;;9.10;99.90;;;;;;5357517;26;20379;-72
2024/04/10 07:01:28;;;;;;;1.50;1.40;;;9.00;99.90;;;;;;5357489;26;20261;-71
2024/04/10 07:03:56;;;;;;;1.50;1.50;;;9.00;99.90;;;;;;5350431;26;20255;-72
2024/04/10 07:06:25;;;;;;;1.50;1.40;;;9.00;99.90;;;;;;5357029;26;20324;-72
2024/04/10 07:08:52;;;;;;;1.50;1.40;;;9.00;99.90;;;;;;5352601;26;20254;-73
2024/04/10 07:11:22;;;;;;;1.45;1.42;;;9.00;99.90;;;;;;5364349;21;20262;-71
2024/04/10 07:13:49;;;;;;;1.75;1.65;;;9.00;99.90;;;;;;5325958;26;20291;-72
2024/04/10 07:16:18;;;;;;;2.60;2.38;;;9.00;99.90;;;;;;5297679;26;20367;-73
2024/04/10 07:18:45;;;;;;;2.10;2.00;;;9.00;99.90;;;;;;5322783;26;20748;-71
2024/04/10 07:21:17;;;;;;;1.80;1.70;;;9.00;99.90;;;;;;5308039;26;20255;-72
2024/04/10 07:23:45;;;;;;;2.13;2.03;;;8.90;99.90;;;;;;5303150;26;20659;-72
2024/04/10 07:26:15;;;;;;;1.65;1.55;;;9.00;99.90;;;;;;5309595;26;20685;-71
2024/04/10 07:28:42;;;;;;;1.95;1.85;;;8.90;99.90;;;;;;5310465;26;20295;-73
2024/04/10 07:31:11;;;;;;;2.05;1.90;;;9.00;99.90;;;;;;5308483;26;20255;-71
2024/04/10 07:33:37;;;;;;;1.88;1.73;;;8.90;99.90;;;;;;5308954;26;20250;-73
2024/04/10 07:36:10;;;;;;;1.40;1.40;;;8.90;99.90;;;;;;5305687;26;20263;-72
2024/04/10 07:38:41;;;;;;;1.90;1.80;;;8.80;99.90;;;;;;5312926;26;20320;-73
2024/04/10 07:41:10;;;;;;;2.17;1.73;;;8.80;99.90;;;;;;5302973;26;21163;-72
2024/04/10 07:43:36;;;;;;;1.92;1.40;;;8.70;99.90;;;;;;5279609;26;20315;-72
2024/04/10 07:46:12;;;;;;;2.05;1.95;;;8.70;99.90;;;;;;5310163;26;20258;-74
2024/04/10 07:48:39;;;;;;;1.63;1.52;;;8.70;99.90;;;;;;5309612;26;20883;-73
2024/04/10 07:51:09;;;;;;;2.10;2.00;;;8.80;99.90;;;;;;5309594;26;20296;-73
2024/04/10 07:53:36;;;;;;;1.90;1.80;;;8.80;99.90;;;;;;5307691;26;20324;-73
2024/04/10 07:56:09;;;;;;;1.90;1.80;;;8.80;99.90;;;;;;5307364;26;20297;-74
2024/04/10 07:58:36;;;;;;;1.48;1.38;;;8.80;99.90;;;;;;5309291;26;20258;-73
2024/04/10 08:01:06;;;;;;;1.80;1.70;;;8.90;99.90;;;;;;5304569;26;20681;-73
2024/04/10 08:03:32;;;;;;;1.77;1.67;;;8.90;99.90;;;;;;5307322;26;20255;-73
2024/04/10 08:06:03;;;;;;;1.50;1.40;;;8.90;99.90;;;;;;5307711;26;20305;-73
2024/04/10 08:08:29;;;;;;;1.40;1.40;;;8.90;99.90;;;;;;5313474;26;20362;-74
2024/04/10 08:11:00;;;;;;;1.63;1.60;;;8.90;99.90;;;;;;5313169;26;20776;-74
2024/04/10 08:13:30;;;;;;;2.63;2.42;;;8.90;99.90;;;;;;5311403;26;20284;-74
2024/04/10 08:15:59;;;;;;;2.30;2.20;;;9.00;99.90;;;;;;5306881;26;20263;-74
2024/04/10 08:18:26;;;;;;;1.95;1.85;;;9.00;99.90;;;;;;5306113;26;20258;-73
2024/04/10 08:21:03;;;;;;;1.92;1.70;;;9.00;99.90;;;;;;5302550;26;20313;-74
2024/04/10 08:23:30;;;;;;;1.63;1.52;;;8.90;99.90;;;;;;5308639;26;20318;-73
2024/04/10 08:25:58;;;;;;;2.63;1.77;;;9.00;99.90;;;;;;5308057;26;20351;-74
2024/04/10 08:28:25;;;;;;;1.90;1.80;;;9.00;99.90;;;;;;5309655;26;20293;-73
2024/04/10 08:30:57;;;;;;;1.85;1.75;;;9.00;99.90;;;;;;5308096;26;20312;-73
2024/04/10 08:33:26;;;;;;;1.60;1.50;;;9.00;99.90;;;;;;5305629;26;20291;-73
2024/04/10 08:35:59;;;;;;;1.58;1.55;;;9.00;99.90;;;;;;5305226;26;20262;-74
2024/04/10 08:38:26;;;;;;;2.00;1.90;;;9.00;99.90;;;;;;5303483;26;20857;-73
2024/04/10 08:40:58;;;;;;;2.40;1.73;;;9.00;99.90;;;;;;5308430;26;20356;-72
2024/04/10 08:43:26;;;;;;;1.63;1.63;;;8.90;99.90;;;;;;5305363;26;20379;-72
2024/04/10 08:45:58;;;;;;;2.05;1.95;;;8.90;99.90;;;;;;5308345;26;20254;-71
2024/04/10 08:48:26;;;;;;;1.58;1.50;;;8.90;99.90;;;;;;5315251;26;20293;-72
2024/04/10 08:50:58;;;;;;;1.65;1.65;;;8.90;99.90;;;;;;5302067;26;20257;-72
2024/04/10 08:53:26;;;;;;;2.05;1.85;;;9.00;99.90;;;;;;5317070;26;20263;-75
2024/04/10 08:55:55;;;;;;;1.55;1.55;;;9.00;99.90;;;;;;5311811;26;20356;-71
2024/04/10 08:58:21;;;;;;;1.48;1.48;;;9.00;99.90;;;;;;5318204;26;20261;-72
2024/04/10 09:00:49;;;;;;;1.58;1.58;;;9.10;99.90;;;;;;5313096;26;20304;-74
2024/04/10 09:03:18;;;;;;;1.73;1.63;;;9.20;99.90;;;;;;5314046;26;20254;-74
2024/04/10 09:05:47;;;;;;;2.78;2.45;;;9.20;99.90;;;;;;5306915;26;20340;-73
2024/04/10 09:08:13;;;;;;;1.90;1.80;;;9.10;99.90;;;;;;5314542;26;20759;-71
2024/04/10 09:10:41;;;;;;;1.92;1.83;;;9.10;99.90;;;;;;5322957;26;20434;-74
2024/04/10 09:13:09;;;;;;;2.08;1.90;;;9.10;99.90;;;;;;5315500;26;20262;-73
2024/04/10 09:15:38;;;;;;;1.90;1.80;;;9.10;99.90;;;;;;5313275;26;20339;-73
2024/04/10 09:18:06;;;;;;;2.00;1.90;;;9.10;99.90;;;;;;5307034;26;20349;-72
2024/04/10 09:20:39;;;;;;;1.92;1.83;;;9.10;99.90;;;;;;5311310;26;20772;-73
2024/04/10 09:23:06;;;;;;;2.00;1.90;;;9.20;99.90;;;;;;5309846;26;20258;-72
2024/04/10 09:25:37;;;;;;;2.00;1.90;;;9.20;99.90;;;;;;5312276;26;20255;-72
2024/04/10 09:28:05;;;;;;;1.40;1.40;;;9.20;99.90;;;;;;5312402;26;20300;-72
2024/04/10 09:30:35;;;;;;;1.65;1.60;;;9.20;99.90;;;;;;5314391;26;20312;-74
2024/04/10 09:33:02;;;;;;;1.80;1.70;;;9.30;99.90;;;;;;5318576;26;20261;-73
2024/04/10 09:35:31;;;;;;;1.80;1.70;;;9.30;99.90;;;;;;5321551;26;20744;-72
2024/04/10 09:38:01;;;;;;;1.92;1.83;;;9.30;99.90;;;;;;5313908;26;20254;-73
2024/04/10 09:40:31;;;;;;;1.80;1.70;;;9.30;99.90;;;;;;5312706;26;20368;-75
2024/04/10 09:43:02;;;;;;;2.42;2.25;;;9.30;99.90;;;;;;5310050;26;20251;-74
2024/04/10 09:45:35;;;;;;;1.95;1.85;;;9.20;99.90;;;;;;5313027;26;20937;-71
2024/04/10 09:48:05;;;;;;;2.75;2.50;;;9.20;99.90;;;;;;5307290;26;20674;-73
2024/04/10 09:50:37;;;;;;;2.28;2.13;;;9.10;99.90;;;;;;5312174;26;20845;-74
2024/04/10 09:53:07;;;;;;;2.30;2.10;;;9.10;99.90;;;;;;5313152;26;20372;-73
2024/04/10 09:55:38;;;;;;;2.65;2.45;;;9.10;99.90;;;;;;5312692;26;20308;-73
2024/04/10 09:58:06;;;;;;;2.13;1.90;;;9.10;99.90;;;;;;5311856;26;20364;-73
2024/04/10 10:00:37;;;;;;;2.40;2.30;;;9.10;99.90;;;;;;5311637;26;20835;-73
2024/04/10 10:03:05;;;;;;;1.95;1.85;;;9.20;99.90;;;;;;5315431;26;20298;-74
2024/04/10 10:05:34;;;;;;;1.60;1.50;;;9.40;99.90;;;;;;5289810;26;20265;-73
2024/04/10 10:08:12;;;;;;;1.83;1.73;;;9.40;99.90;;;;;;5309641;26;20333;-74
2024/04/10 10:10:49;;;;;;;2.38;1.90;;;9.40;99.90;;;;;;5318879;26;20351;-73
2024/04/10 10:13:25;;;;;;;1.67;1.58;;;9.30;99.90;;;;;;5318553;26;21179;-73
2024/04/10 10:15:58;;;;;;;1.90;1.80;;;9.30;99.90;;;;;;5319946;26;20267;-74
2024/04/10 10:18:26;;;;;;;1.60;1.50;;;9.30;99.90;;;;;;5319904;26;20314;-73
2024/04/10 10:21:03;;;;;;;1.70;1.60;;;9.30;99.90;;;;;;5317704;26;20263;-73
2024/04/10 10:23:32;;;;;;;1.50;1.50;;;9.30;99.90;;;;;;5322805;26;20288;-73
2024/04/10 10:26:01;;;;;;;1.80;1.70;;;9.40;99.90;;;;;;5319619;26;20293;-72
2024/04/10 10:28:29;;;;;;;1.50;1.50;;;9.50;99.90;;;;;;5318295;26;20773;-74
2024/04/10 10:31:08;;;;;;;1.92;1.83;;;9.50;99.90;;;;;;5316867;26;20266;-74
2024/04/10 10:33:34;;;;;;;1.80;1.70;;;9.50;99.90;;;;;;5316326;26;20360;-74
2024/04/10 10:36:03;;;;;;;1.67;1.67;;;9.50;99.90;;;;;;5319783;26;20419;-74
2024/04/10 10:38:31;;;;;;;1.50;1.40;;;9.50;99.90;;;;;;5322038;26;20250;-75
2024/04/10 10:41:08;;;;;;;1.63;1.52;;;9.50;99.90;;;;;;5320990;26;20807;-73
2024/04/10 10:43:35;;;;;;;2.22;2.03;;;9.60;99.90;;;;;;5316659;26;20262;-75
2024/04/10 10:46:04;;;;;;;2.25;2.15;;;9.50;99.90;;;;;;5321459;26;20301;-74
2024/04/10 10:48:31;;;;;;;2.08;1.98;;;9.50;99.90;;;;;;5312225;26;20313;-72
2024/04/10 10:51:00;;;;;;;1.80;1.70;;;9.40;99.90;;;;;;5301373;26;20333;-73
2024/04/10 10:53:27;;;;;;;2.85;1.75;;;9.40;99.90;;;;;;5321768;26;20286;-72
2024/04/10 10:55:59;;;;;;;2.42;2.22;;;9.30;99.90;;;;;;5321230;26;20267;-74
2024/04/10 10:58:26;;;;;;;2.30;2.10;;;9.30;99.90;;;;;;5323026;26;20304;-73
2024/04/10 11:00:55;;;;;;;2.20;2.10;;;9.30;99.90;;;;;;5318574;26;20264;-75
2024/04/10 11:03:22;;;;;;;2.25;2.15;;;9.30;99.90;;;;;;5297386;26;20275;-73
2024/04/10 11:05:51;;;;;;;2.25;2.05;;;9.40;99.90;;;;;;5306031;26;20342;-74
2024/04/10 11:08:22;;;;;;;1.80;1.70;;;9.50;99.90;;;;;;5313134;26;20306;-73
2024/04/10 11:10:51;;;;;;;5.00;1.85;;;9.60;99.90;;;;;;5315331;26;20262;-74
2024/04/10 11:13:20;;;;;;;1.90;1.80;;;9.60;99.90;;;;;;5308433;26;20363;-74
2024/04/10 11:15:49;;;;;;;2.05;1.92;;;9.50;99.90;;;;;;5311471;26;20259;-74
2024/04/10 11:18:16;;;;;;;2.08;1.98;;;9.50;99.90;;;;;;5308269;26;20308;-73
2024/04/10 11:20:45;;;;;;;1.90;1.80;;;9.60;99.90;;;;;;5308612;26;20254;-76
2024/04/10 11:23:11;;;;;;;1.80;1.70;;;9.70;99.90;;;;;;5304283;26;22087;-74
2024/04/10 11:25:40;;;;;;;1.90;1.80;;;9.70;99.90;;;;;;5308322;26;20919;-74
2024/04/10 11:28:07;;;;;;;2.20;2.05;;;9.80;99.90;;;;;;5313963;26;20835;-74
2024/04/10 11:30:39;;;;;;;1.70;1.65;;;9.80;99.90;;;;;;5312618;26;20869;-71
2024/04/10 11:33:06;;;;;;;1.83;1.77;;;9.80;99.90;;;;;;5331381;26;20384;-74
2024/04/10 11:35:37;;;;;;;1.80;1.70;;;9.90;99.90;;;;;;5318357;26;20257;-74
2024/04/10 11:38:04;;;;;;;1.40;1.40;;;9.90;99.90;;;;;;5311951;26;20312;-74
2024/04/10 11:40:34;;;;;;;1.50;1.40;;;10.00;99.90;;;;;;5310146;26;20247;-74
2024/04/10 11:43:00;;;;;;;3.40;3.10;;;9.90;99.90;;;;;;5325932;26;20254;-73
2024/04/10 11:45:29;;;;;;;3.97;3.67;;;9.90;99.90;;;;;;5328156;26;21547;-74
2024/04/10 11:47:59;;;;;;;5.10;3.42;;;9.80;99.90;;;;;;5322256;26;20317;-72
2024/04/10 11:50:28;;;;;;;3.00;2.80;;;9.90;99.90;;;;;;5321418;26;20301;-72
2024/04/10 11:52:54;;;;;;;2.47;2.30;;;10.00;99.90;;;;;;5322311;26;20343;-74
2024/04/10 11:55:22;;;;;;;2.55;2.45;;;10.00;99.90;;;;;;5323032;26;20820;-75
2024/04/10 11:57:49;;;;;;;2.60;2.50;;;10.00;99.90;;;;;;5308366;26;20269;-73
2024/04/10 12:00:18;;;;;;;3.25;3.05;;;10.10;99.90;;;;;;5286906;26;20290;-73
2024/04/10 12:02:44;;;;;;;4.68;4.38;;;10.00;99.90;;;;;;5319613;26;20869;-74
2024/04/10 12:05:15;;;;;;;4.03;3.83;;;10.00;99.90;;;;;;5328507;26;20255;-75
2024/04/10 12:07:41;;;;;;;3.53;3.22;;;9.90;99.90;;;;;;5326699;26;20282;-76
2024/04/10 12:10:11;;;;;;;2.70;2.60;;;9.80;99.90;;;;;;5330174;26;20341;-74
2024/04/10 12:12:37;;;;;;;2.10;2.00;;;9.90;99.90;;;;;;5312937;26;20259;-74
2024/04/10 12:15:08;;;;;;;2.25;2.15;;;9.90;99.90;;;;;;5318390;26;20286;-74
2024/04/10 12:17:34;;;;;;;2.40;2.20;;;10.00;99.90;;;;;;5319754;26;20401;-73
2024/04/10 12:20:03;;;;;;;2.30;2.20;;;9.90;99.90;;;;;;5309332;26;20271;-75
2024/04/10 12:22:32;;;;;;;1.92;1.83;;;9.90;99.90;;;;;;5312105;26;20262;-75
2024/04/10 12:25:01;;;;;;;1.80;1.70;;;10.00;99.90;;;;;;5310812;26;20791;-75
2024/04/10 12:27:27;;;;;;;1.90;1.80;;;10.00;99.90;;;;;;5307131;26;22522;-75
2024/04/10 12:29:56;;;;;;;2.17;2.08;;;9.90;99.90;;;;;;5310564;26;20912;-74
2024/04/10 12:32:22;;;;;;;2.00;1.90;;;9.80;99.90;;;;;;5311614;26;20262;-74
2024/04/10 12:34:52;;;;;;;1.80;1.70;;;9.80;99.90;;;;;;5309119;26;20262;-73
2024/04/10 12:40:19;;;;;;;2.08;1.90;;;9.70;99.90;;;;;;5310076;26;20242;-74
2024/04/10 12:42:48;;;;;;;1.70;1.60;;;9.60;99.90;;;;;;5306711;26;20346;-76
2024/04/10 12:45:17;;;;;;;2.00;1.90;;;9.70;99.90;;;;;;5320633;26;20254;-74
2024/04/10 12:47:43;;;;;;;1.77;1.67;;;9.70;99.90;;;;;;5315057;26;20329;-74
2024/04/10 12:50:13;;;;;;;1.70;1.60;;;9.70;99.90;;;;;;5318436;26;20313;-73
2024/04/10 12:52:40;;;;;;;2.20;2.10;;;9.70;99.90;;;;;;5326025;26;20289;-76
2024/04/10 12:55:10;;;;;;;2.45;2.25;;;9.50;99.90;;;;;;5318887;26;21863;-74
2024/04/10 12:57:39;;;;;;;2.10;1.75;;;9.50;99.90;;;;;;5317745;26;20398;-76
2024/04/10 13:00:09;;;;;;;1.42;1.33;;;9.50;99.90;;;;;;5316243;26;20262;-73
2024/04/10 13:02:35;;;;;;;1.65;1.63;;;9.50;99.90;;;;;;5332661;26;20326;-73